createdAt,value
2022-08-09T00:00:04.434Z,0.00
2022-08-09T00:00:59.327Z,0.00
2022-08-09T00:01:58.277Z,0.00
2022-08-09T00:02:58.232Z,0.00
2022-08-09T00:04:10.779Z,0.00
2022-08-09T00:05:02.835Z,0.00
2022-08-09T00:06:15.511Z,0.00
2022-08-09T00:06:59.183Z,0.00
2022-08-09T00:07:59.963Z,0.00
2022-08-09T00:08:58.184Z,0.00
2022-08-09T00:09:58.167Z,0.00
2022-08-09T00:10:58.338Z,0.00
2022-08-09T00:12:03.559Z,0.00
2022-08-09T00:12:59.125Z,0.00
2022-08-09T00:13:58.134Z,0.00
2022-08-09T00:14:58.107Z,0.00
2022-08-09T00:16:02.814Z,0.00
2022-08-09T00:16:58.097Z,0.00
2022-08-09T00:18:05.823Z,0.00
2022-08-09T00:18:59.093Z,0.00
2022-08-09T00:19:58.058Z,0.00
2022-08-09T00:20:58.048Z,0.00
2022-08-09T00:21:58.042Z,0.00
2022-08-09T00:22:58.030Z,0.00
2022-08-09T00:23:59.909Z,0.00
2022-08-09T00:24:58.011Z,0.00
2022-08-09T00:25:57.980Z,0.00
2022-08-09T00:26:59.747Z,0.00
2022-08-09T00:27:57.961Z,0.00
2022-08-09T00:28:57.982Z,0.00
2022-08-09T00:30:16.439Z,0.00
2022-08-09T00:30:58.940Z,0.00
2022-08-09T00:31:59.745Z,0.00
2022-08-09T00:32:57.979Z,0.00
2022-08-09T00:33:57.974Z,0.00
2022-08-09T00:34:58.646Z,0.00
2022-08-09T00:35:57.891Z,0.00
2022-08-09T00:36:57.874Z,0.00
2022-08-09T00:37:57.856Z,0.00
2022-08-09T00:38:57.876Z,0.00
2022-08-09T00:40:09.691Z,0.00
2022-08-09T00:40:58.909Z,0.00
2022-08-09T00:44:13.139Z,0.00
2022-08-09T00:44:15.310Z,0.00
2022-08-09T00:44:16.717Z,0.00
2022-08-09T00:44:58.787Z,0.00
2022-08-09T00:45:57.780Z,0.00
2022-08-09T00:47:05.067Z,0.00
2022-08-09T00:47:58.752Z,0.00
2022-08-09T00:48:57.769Z,0.00
2022-08-09T00:49:57.730Z,0.00
2022-08-09T00:50:57.723Z,0.00
2022-08-09T00:51:57.711Z,0.00
2022-08-09T00:52:57.700Z,0.00
2022-08-09T00:53:57.711Z,0.00
2022-08-09T00:54:57.682Z,0.00
2022-08-09T00:56:05.280Z,0.00
2022-08-09T00:56:58.663Z,0.00
2022-08-09T00:57:59.199Z,0.00
2022-08-09T00:58:57.664Z,0.00
2022-08-09T00:59:57.625Z,0.00
2022-08-09T01:00:59.060Z,0.00
2022-08-09T01:01:57.631Z,0.00
2022-08-09T01:02:57.595Z,0.00
2022-08-09T01:03:57.625Z,0.00
2022-08-09T01:04:57.576Z,0.00
2022-08-09T01:05:57.565Z,0.00
2022-08-09T01:06:57.557Z,0.00
2022-08-09T01:08:01.045Z,0.00
2022-08-09T01:08:57.567Z,0.00
2022-08-09T01:09:57.525Z,0.00
2022-08-09T01:10:57.517Z,0.00
2022-08-09T01:11:57.499Z,0.00
2022-08-09T01:12:57.498Z,0.00
2022-08-09T01:14:00.067Z,0.00
2022-08-09T01:14:57.470Z,0.00
2022-08-09T01:15:57.459Z,0.00
2022-08-09T01:16:57.451Z,0.00
2022-08-09T01:17:57.846Z,0.00
2022-08-09T01:19:01.915Z,0.00
2022-08-09T01:20:02.553Z,0.00
2022-08-09T01:20:58.403Z,0.00
2022-08-09T01:21:57.393Z,0.00
2022-08-09T01:22:57.393Z,0.00
2022-08-09T01:24:02.940Z,0.00
2022-08-09T01:24:58.363Z,0.00
2022-08-09T01:25:57.358Z,0.00
2022-08-09T01:26:57.351Z,0.00
2022-08-09T01:27:57.867Z,0.00
2022-08-09T01:28:57.355Z,0.00
2022-08-09T01:29:57.315Z,0.00
2022-08-09T01:30:59.001Z,0.00
2022-08-09T01:32:32.231Z,0.00
2022-08-09T01:32:58.650Z,0.00
2022-08-09T01:33:57.306Z,0.00
2022-08-09T01:34:57.258Z,0.00
2022-08-09T01:35:57.249Z,0.00
2022-08-09T01:36:57.240Z,0.00
2022-08-09T01:38:08.161Z,0.00
2022-08-09T01:38:58.239Z,0.00
2022-08-09T01:39:57.209Z,0.00
2022-08-09T01:41:05.031Z,0.00
2022-08-09T01:42:02.211Z,0.00
2022-08-09T01:42:58.171Z,0.00
2022-08-09T01:43:57.182Z,0.00
2022-08-09T01:44:57.163Z,0.00
2022-08-09T01:45:57.878Z,0.00
2022-08-09T01:46:57.143Z,0.00
2022-08-09T01:47:57.123Z,0.00
2022-08-09T01:48:57.237Z,0.00
2022-08-09T01:49:57.102Z,0.00
2022-08-09T01:50:57.093Z,0.00
2022-08-09T01:51:57.074Z,0.00
2022-08-09T01:52:57.073Z,0.00
2022-08-09T01:53:57.976Z,0.00
2022-08-09T01:54:57.046Z,0.00
2022-08-09T01:55:57.036Z,0.00
2022-08-09T01:56:57.027Z,0.00
2022-08-09T01:57:57.015Z,0.00
2022-08-09T01:58:57.028Z,0.00
2022-08-09T02:00:00.229Z,0.00
2022-08-09T02:00:58.014Z,0.00
2022-08-09T02:02:00.164Z,0.00
2022-08-09T02:02:56.960Z,0.00
2022-08-09T02:03:56.961Z,0.00
2022-08-09T02:04:59.456Z,0.00
2022-08-09T02:06:06.224Z,0.00
2022-08-09T02:06:58.685Z,0.00
2022-08-09T02:08:40.365Z,0.00
2022-08-09T02:08:59.716Z,0.00
2022-08-09T02:09:59.763Z,0.00
2022-08-09T02:10:56.885Z,0.00
2022-08-09T02:11:57.003Z,0.00
2022-08-09T02:12:56.866Z,0.00
2022-08-09T02:14:07.623Z,0.00
2022-08-09T02:14:57.863Z,0.00
2022-08-09T02:15:56.852Z,0.00
2022-08-09T02:17:15.086Z,0.00
2022-08-09T02:18:09.378Z,0.00
2022-08-09T02:18:57.796Z,0.00
2022-08-09T02:19:56.795Z,0.00
2022-08-09T02:20:56.767Z,0.00
2022-08-09T02:21:56.754Z,0.00
2022-08-09T02:22:56.746Z,0.00
2022-08-09T02:23:56.738Z,0.00
2022-08-09T02:24:56.746Z,0.00
2022-08-09T02:25:57.701Z,0.00
2022-08-09T02:26:56.699Z,0.00
2022-08-09T02:27:58.178Z,0.00
2022-08-09T02:28:56.679Z,0.00
2022-08-09T02:29:56.697Z,0.00
2022-08-09T02:30:57.662Z,0.00
2022-08-09T02:31:56.651Z,0.00
2022-08-09T02:32:56.651Z,0.00
2022-08-09T02:34:06.897Z,0.00
2022-08-09T02:34:57.792Z,0.00
2022-08-09T02:36:02.976Z,0.00
2022-08-09T02:36:57.593Z,0.00
2022-08-09T02:37:56.583Z,0.00
2022-08-09T02:38:56.577Z,0.00
2022-08-09T02:40:01.401Z,0.00
2022-08-09T02:40:57.543Z,0.00
2022-08-09T02:41:56.556Z,0.00
2022-08-09T02:42:56.524Z,0.00
2022-08-09T02:43:56.516Z,0.00
2022-08-09T02:44:56.525Z,0.00
2022-08-09T02:45:56.495Z,0.00
2022-08-09T02:46:56.487Z,0.00
2022-08-09T02:47:59.303Z,0.00
2022-08-09T02:48:56.465Z,0.00
2022-08-09T02:50:01.777Z,0.00
2022-08-09T02:50:57.447Z,0.00
2022-08-09T02:51:56.438Z,0.00
2022-08-09T02:52:56.429Z,0.00
2022-08-09T02:54:01.184Z,0.00
2022-08-09T02:54:57.473Z,0.00
2022-08-09T02:55:58.417Z,0.00
2022-08-09T02:56:57.146Z,0.00
2022-08-09T02:58:32.988Z,0.00
2022-08-09T02:58:57.351Z,0.00
2022-08-09T03:00:25.696Z,0.00
2022-08-09T03:00:57.838Z,0.00
2022-08-09T03:02:05.480Z,0.00
2022-08-09T03:02:58.313Z,0.00
2022-08-09T03:04:17.094Z,0.00
2022-08-09T03:04:57.313Z,0.00
2022-08-09T03:05:56.283Z,0.00
2022-08-09T03:06:56.272Z,0.00
2022-08-09T03:07:56.277Z,0.00
2022-08-09T03:08:56.257Z,0.00
2022-08-09T03:09:59.318Z,0.00
2022-08-09T03:10:56.233Z,0.00
2022-08-09T03:12:05.921Z,0.00
2022-08-09T03:12:57.217Z,0.00
2022-08-09T03:14:01.389Z,0.00
2022-08-09T03:14:57.210Z,0.00
2022-08-09T03:16:05.825Z,0.00
2022-08-09T03:16:58.221Z,0.00
2022-08-09T03:17:58.718Z,0.00
2022-08-09T03:18:56.155Z,0.00
2022-08-09T03:20:00.164Z,0.00
2022-08-09T03:20:57.119Z,0.00
2022-08-09T03:21:56.120Z,0.00
2022-08-09T03:22:58.230Z,0.00
2022-08-09T03:24:04.658Z,0.00
2022-08-09T03:25:05.951Z,0.00
2022-08-09T03:26:02.191Z,0.00
2022-08-09T03:26:57.062Z,0.00
2022-08-09T03:27:56.067Z,0.00
2022-08-09T03:28:56.041Z,0.00
2022-08-09T03:29:58.084Z,0.00
2022-08-09T03:30:57.015Z,0.00
2022-08-09T03:32:00.426Z,0.00
2022-08-09T03:32:55.995Z,0.00
2022-08-09T03:33:56.558Z,0.00
2022-08-09T03:34:55.945Z,0.00
2022-08-09T03:36:15.719Z,0.00
2022-08-09T03:36:59.501Z,0.00
2022-08-09T03:37:58.447Z,0.00
2022-08-09T03:38:56.402Z,0.00
2022-08-09T03:39:56.662Z,0.00
2022-08-09T03:40:55.917Z,0.00
2022-08-09T03:42:06.011Z,0.00
2022-08-09T03:42:56.897Z,0.00
2022-08-09T03:44:08.520Z,0.00
2022-08-09T03:44:57.009Z,0.00
2022-08-09T03:46:04.546Z,0.00
2022-08-09T03:46:56.818Z,0.00
2022-08-09T03:47:55.790Z,0.00
2022-08-09T03:48:55.781Z,0.00
2022-08-09T03:49:58.455Z,0.00
2022-08-09T03:50:55.764Z,0.00
2022-08-09T03:52:00.072Z,0.00
2022-08-09T03:52:55.739Z,0.00
2022-08-09T03:53:55.735Z,0.00
2022-08-09T03:54:55.741Z,0.00
2022-08-09T03:55:55.715Z,0.00
2022-08-09T03:56:57.799Z,0.00
2022-08-09T03:58:03.279Z,0.00
2022-08-09T03:58:56.677Z,0.00
2022-08-09T04:00:00.446Z,0.00
2022-08-09T04:00:56.775Z,0.00
2022-08-09T04:01:55.645Z,0.00
2022-08-09T04:02:57.450Z,0.00
2022-08-09T04:04:02.074Z,0.00
2022-08-09T04:04:56.636Z,0.00
2022-08-09T04:05:55.610Z,0.00
2022-08-09T04:06:55.596Z,0.00
2022-08-09T04:07:57.245Z,0.00
2022-08-09T04:08:55.578Z,0.00
2022-08-09T04:09:55.589Z,0.00
2022-08-09T04:10:55.549Z,0.00
2022-08-09T04:11:56.547Z,0.00
2022-08-09T04:12:55.529Z,0.00
2022-08-09T04:14:54.056Z,0.00
2022-08-09T04:15:01.889Z,0.00
2022-08-09T04:16:20.985Z,0.00
2022-08-09T04:16:57.405Z,0.00
2022-08-09T04:17:57.819Z,0.00
2022-08-09T04:18:55.471Z,0.00
2022-08-09T04:19:56.187Z,0.00
2022-08-09T04:20:55.460Z,0.00
2022-08-09T04:21:55.443Z,0.00
2022-08-09T04:22:55.444Z,0.00
2022-08-09T04:23:57.731Z,0.00
2022-08-09T04:24:55.428Z,0.00
2022-08-09T04:25:55.414Z,0.00
2022-08-09T04:26:55.385Z,0.00
2022-08-09T04:27:55.383Z,0.00
2022-08-09T04:28:59.786Z,0.00
2022-08-09T04:29:56.385Z,0.00
2022-08-09T04:30:55.346Z,0.00
2022-08-09T04:31:55.358Z,0.00
2022-08-09T04:32:55.330Z,0.00
2022-08-09T04:33:57.131Z,0.00
2022-08-09T04:34:57.462Z,0.00
2022-08-09T04:35:55.300Z,0.00
2022-08-09T04:36:55.289Z,0.00
2022-08-09T04:37:55.280Z,0.00
2022-08-09T04:38:55.259Z,0.00
2022-08-09T04:39:55.280Z,0.00
2022-08-09T04:40:56.328Z,0.00
2022-08-09T04:41:55.231Z,0.00
2022-08-09T04:42:55.228Z,0.00
2022-08-09T04:44:06.763Z,0.00
2022-08-09T04:44:56.222Z,0.00
2022-08-09T04:45:55.191Z,0.00
2022-08-09T04:46:59.648Z,0.00
2022-08-09T04:48:00.307Z,0.00
2022-08-09T04:48:57.721Z,0.00
2022-08-09T04:49:55.672Z,0.00
2022-08-09T04:50:55.134Z,0.00
2022-08-09T04:51:55.133Z,0.00
2022-08-09T04:52:55.114Z,0.00
2022-08-09T04:53:58.550Z,0.00
2022-08-09T04:54:55.116Z,0.00
2022-08-09T04:55:58.398Z,0.00
2022-08-09T04:56:55.077Z,0.00
2022-08-09T04:58:01.484Z,0.00
2022-08-09T04:58:56.054Z,0.00
2022-08-09T04:59:55.081Z,0.00
2022-08-09T05:00:55.036Z,0.00
2022-08-09T05:01:55.028Z,0.00
2022-08-09T05:02:55.018Z,5.62
2022-08-09T05:03:56.879Z,5.62
2022-08-09T05:04:55.796Z,5.62
2022-08-09T05:06:06.874Z,5.62
2022-08-09T05:06:55.985Z,5.62
2022-08-09T05:07:54.970Z,5.62
2022-08-09T05:08:59.958Z,5.62
2022-08-09T05:09:55.971Z,5.62
2022-08-09T05:10:54.932Z,5.62
2022-08-09T05:11:54.921Z,5.62
2022-08-09T05:12:54.912Z,5.62
2022-08-09T05:13:55.198Z,5.62
2022-08-09T05:14:54.922Z,5.62
2022-08-09T05:15:56.839Z,5.62
2022-08-09T05:16:59.231Z,5.62
2022-08-09T05:18:42.765Z,5.62
2022-08-09T05:18:59.344Z,5.62
2022-08-09T05:19:56.599Z,5.62
2022-08-09T05:20:54.825Z,5.62
2022-08-09T05:21:55.537Z,5.62
2022-08-09T05:23:59.838Z,5.62
2022-08-09T05:24:00.374Z,5.62
2022-08-09T05:24:57.308Z,5.62
2022-08-09T05:25:56.929Z,5.62
2022-08-09T05:26:54.788Z,5.62
2022-08-09T05:27:55.454Z,5.62
2022-08-09T05:28:54.757Z,5.62
2022-08-09T05:29:54.759Z,5.62
2022-08-09T05:30:54.729Z,5.62
2022-08-09T05:31:57.620Z,5.62
2022-08-09T05:32:54.709Z,5.62
2022-08-09T05:33:54.701Z,5.62
2022-08-09T05:34:54.710Z,11.25
2022-08-09T05:35:54.702Z,11.25
2022-08-09T05:36:54.661Z,11.25
2022-08-09T05:37:54.663Z,11.25
2022-08-09T05:38:54.641Z,11.25
2022-08-09T05:39:54.748Z,11.25
2022-08-09T05:40:54.624Z,11.25
2022-08-09T05:41:54.663Z,11.25
2022-08-09T05:42:54.604Z,11.25
2022-08-09T05:43:54.604Z,11.25
2022-08-09T05:44:54.613Z,11.25
2022-08-09T05:45:57.049Z,11.25
2022-08-09T05:46:54.565Z,11.25
2022-08-09T05:47:59.254Z,11.25
2022-08-09T05:48:59.014Z,11.25
2022-08-09T05:50:30.682Z,11.25
2022-08-09T05:51:16.950Z,11.25
2022-08-09T05:51:55.506Z,16.88
2022-08-09T05:52:55.106Z,16.88
2022-08-09T05:53:57.307Z,16.88
2022-08-09T05:54:55.354Z,16.88
2022-08-09T05:55:54.470Z,16.88
2022-08-09T05:56:56.684Z,16.88
2022-08-09T05:57:57.518Z,16.88
2022-08-09T05:58:57.930Z,16.88
2022-08-09T05:59:54.471Z,16.88
2022-08-09T06:00:54.420Z,16.88
2022-08-09T06:01:58.951Z,16.88
2022-08-09T06:02:56.980Z,16.88
2022-08-09T06:03:58.379Z,16.88
2022-08-09T06:04:55.820Z,16.88
2022-08-09T06:06:04.395Z,16.88
2022-08-09T06:06:55.343Z,16.88
2022-08-09T06:08:07.915Z,16.88
2022-08-09T06:08:55.323Z,16.88
2022-08-09T06:10:01.980Z,16.88
2022-08-09T06:10:55.335Z,16.88
2022-08-09T06:11:57.713Z,22.50
2022-08-09T06:13:03.151Z,22.50
2022-08-09T06:13:55.276Z,22.50
2022-08-09T06:14:54.289Z,22.50
2022-08-09T06:15:54.257Z,22.50
2022-08-09T06:16:54.237Z,22.50
2022-08-09T06:17:54.239Z,22.50
2022-08-09T06:18:54.218Z,22.50
2022-08-09T06:19:54.238Z,22.50
2022-08-09T06:20:57.911Z,22.50
2022-08-09T06:21:58.743Z,22.50
2022-08-09T06:22:55.170Z,22.50
2022-08-09T06:23:57.272Z,22.50
2022-08-09T06:24:55.170Z,22.50
2022-08-09T06:25:55.325Z,22.50
2022-08-09T06:26:54.131Z,22.50
2022-08-09T06:27:54.122Z,22.50
2022-08-09T06:29:00.912Z,22.50
2022-08-09T06:30:04.680Z,22.50
2022-08-09T06:30:55.085Z,22.50
2022-08-09T06:32:08.706Z,22.50
2022-08-09T06:33:01.000Z,28.12
2022-08-09T06:33:55.063Z,28.12
2022-08-09T06:34:54.074Z,28.12
2022-08-09T06:35:56.927Z,28.12
2022-08-09T06:36:58.963Z,28.12
2022-08-09T06:38:05.660Z,28.12
2022-08-09T06:38:55.007Z,28.12
2022-08-09T06:40:00.131Z,28.12
2022-08-09T06:40:55.264Z,28.12
2022-08-09T06:42:08.647Z,28.12
2022-08-09T06:42:54.971Z,28.12
2022-08-09T06:43:53.967Z,28.12
2022-08-09T06:44:54.610Z,28.12
2022-08-09T06:46:07.411Z,28.12
2022-08-09T06:46:54.920Z,28.12
2022-08-09T06:48:00.835Z,28.12
2022-08-09T06:48:58.466Z,28.12
2022-08-09T06:50:14.097Z,28.12
2022-08-09T06:50:54.879Z,28.12
2022-08-09T06:51:53.871Z,28.12
2022-08-09T06:52:53.861Z,28.12
2022-08-09T06:53:53.852Z,28.12
2022-08-09T06:54:54.189Z,28.12
2022-08-09T06:55:53.833Z,33.75
2022-08-09T06:56:53.822Z,33.75
2022-08-09T06:58:02.483Z,33.75
2022-08-09T07:00:51.633Z,33.75
2022-08-09T07:00:51.877Z,33.75
2022-08-09T07:00:58.410Z,33.75
2022-08-09T07:01:59.526Z,33.75
2022-08-09T07:02:54.809Z,33.75
2022-08-09T07:03:56.610Z,33.75
2022-08-09T07:04:54.759Z,33.75
2022-08-09T07:06:02.936Z,33.75
2022-08-09T07:07:00.141Z,33.75
2022-08-09T07:07:59.706Z,33.75
2022-08-09T07:08:54.696Z,33.75
2022-08-09T07:10:10.405Z,33.75
2022-08-09T07:10:54.684Z,33.75
2022-08-09T07:11:53.756Z,33.75
2022-08-09T07:12:57.055Z,33.75
2022-08-09T07:14:04.831Z,33.75
2022-08-09T07:14:54.675Z,33.75
2022-08-09T07:16:39.533Z,33.75
2022-08-09T07:16:57.995Z,33.75
2022-08-09T07:18:01.965Z,33.75
2022-08-09T07:18:54.592Z,33.75
2022-08-09T07:19:55.517Z,33.75
2022-08-09T07:20:53.568Z,33.75
2022-08-09T07:21:55.325Z,33.75
2022-08-09T07:22:54.237Z,33.75
2022-08-09T07:23:57.802Z,33.75
2022-08-09T07:24:53.545Z,33.75
2022-08-09T07:26:02.545Z,33.75
2022-08-09T07:26:54.504Z,33.75
2022-08-09T07:27:55.638Z,33.75
2022-08-09T07:29:08.121Z,33.75
2022-08-09T07:29:57.262Z,33.75
2022-08-09T07:30:53.466Z,33.75
2022-08-09T07:31:53.448Z,33.75
2022-08-09T07:32:53.448Z,33.75
2022-08-09T07:33:55.790Z,33.75
2022-08-09T07:34:53.438Z,39.38
2022-08-09T07:35:54.705Z,39.38
2022-08-09T07:36:53.400Z,39.38
2022-08-09T07:37:54.042Z,39.38
2022-08-09T07:39:00.606Z,39.38
2022-08-09T07:39:54.476Z,39.38
2022-08-09T07:41:10.051Z,39.38
2022-08-09T07:41:54.341Z,39.38
2022-08-09T07:42:54.221Z,39.38
2022-08-09T07:43:55.858Z,45.00
2022-08-09T07:44:56.242Z,39.38
2022-08-09T07:45:54.303Z,39.38
2022-08-09T07:46:54.294Z,39.38
2022-08-09T07:48:01.503Z,39.38
2022-08-09T07:48:59.347Z,45.00
2022-08-09T07:50:08.060Z,45.00
2022-08-09T07:51:10.074Z,45.00
2022-08-09T07:52:06.333Z,45.00
2022-08-09T07:52:54.233Z,45.00
2022-08-09T07:54:07.457Z,45.00
2022-08-09T07:54:54.227Z,45.00
2022-08-09T07:56:06.594Z,45.00
2022-08-09T07:56:54.189Z,45.00
2022-08-09T07:57:53.179Z,45.00
2022-08-09T07:58:53.172Z,50.62
2022-08-09T08:00:02.937Z,50.62
2022-08-09T08:00:56.036Z,50.62
2022-08-09T08:01:54.200Z,50.62
2022-08-09T08:02:53.132Z,50.62
2022-08-09T08:03:53.111Z,50.62
2022-08-09T08:04:53.516Z,50.62
2022-08-09T08:05:57.727Z,56.25
2022-08-09T08:06:56.211Z,56.25
2022-08-09T08:08:42.624Z,56.25
2022-08-09T08:09:03.657Z,56.25
2022-08-09T08:09:54.972Z,56.25
2022-08-09T08:11:03.323Z,56.25
2022-08-09T08:12:23.870Z,61.88
2022-08-09T08:12:54.024Z,61.88
2022-08-09T08:13:57.158Z,61.88
2022-08-09T08:14:53.032Z,67.50
2022-08-09T08:15:53.006Z,67.50
2022-08-09T08:17:07.796Z,67.50
2022-08-09T08:17:58.185Z,73.12
2022-08-09T08:18:52.958Z,78.75
2022-08-09T08:19:52.948Z,78.75
2022-08-09T08:20:52.969Z,84.38
2022-08-09T08:21:53.153Z,84.38
2022-08-09T08:22:52.910Z,90.00
2022-08-09T08:23:56.107Z,101.25
2022-08-09T08:24:52.967Z,106.88
2022-08-09T08:26:06.631Z,118.12
2022-08-09T08:26:55.529Z,129.38
2022-08-09T08:27:52.861Z,135.00
2022-08-09T08:28:52.853Z,146.25
2022-08-09T08:29:52.842Z,163.12
2022-08-09T08:30:52.853Z,180.00
2022-08-09T08:32:03.100Z,202.50
2022-08-09T08:32:54.238Z,219.38
2022-08-09T08:33:55.862Z,241.88
2022-08-09T08:34:55.372Z,270.00
2022-08-09T08:36:00.163Z,298.12
2022-08-09T08:36:53.765Z,326.25
2022-08-09T08:38:01.834Z,354.38
2022-08-09T08:38:53.747Z,376.88
2022-08-09T08:39:52.769Z,410.62
2022-08-09T08:40:52.759Z,438.75
2022-08-09T08:41:52.720Z,461.25
2022-08-09T08:42:52.711Z,478.12
2022-08-09T08:43:52.689Z,500.62
2022-08-09T08:44:52.754Z,517.50
2022-08-09T08:45:53.591Z,534.38
2022-08-09T08:47:03.303Z,540.00
2022-08-09T08:47:53.650Z,556.88
2022-08-09T08:48:54.160Z,562.50
2022-08-09T08:49:52.753Z,573.75
2022-08-09T08:50:52.653Z,585.00
2022-08-09T08:52:01.549Z,596.25
2022-08-09T08:52:59.116Z,596.25
2022-08-09T08:54:03.259Z,607.50
2022-08-09T08:54:53.585Z,613.12
2022-08-09T08:55:52.841Z,613.12
2022-08-09T08:56:52.565Z,624.38
2022-08-09T08:57:57.103Z,630.00
2022-08-09T08:58:53.547Z,635.62
2022-08-09T08:59:53.979Z,641.25
2022-08-09T09:00:56.419Z,646.88
2022-08-09T09:01:56.743Z,652.50
2022-08-09T09:02:55.628Z,652.50
2022-08-09T09:03:52.550Z,658.12
2022-08-09T09:04:52.680Z,658.12
2022-08-09T09:06:00.708Z,658.12
2022-08-09T09:06:53.490Z,658.12
2022-08-09T09:07:52.453Z,658.12
2022-08-09T09:08:52.934Z,663.75
2022-08-09T09:10:01.714Z,669.38
2022-08-09T09:10:53.451Z,663.75
2022-08-09T09:11:52.412Z,658.12
2022-08-09T09:12:52.404Z,658.12
2022-08-09T09:13:56.397Z,658.12
2022-08-09T09:14:53.384Z,652.50
2022-08-09T09:15:52.410Z,652.50
2022-08-09T09:16:52.367Z,652.50
2022-08-09T09:17:52.943Z,646.88
2022-08-09T09:19:06.383Z,646.88
2022-08-09T09:19:53.336Z,641.25
2022-08-09T09:20:52.355Z,635.62
2022-08-09T09:21:52.317Z,630.00
2022-08-09T09:22:52.311Z,624.38
2022-08-09T09:23:58.362Z,624.38
2022-08-09T09:24:56.625Z,618.75
2022-08-09T09:26:02.377Z,607.50
2022-08-09T09:26:53.270Z,601.88
2022-08-09T09:28:06.184Z,596.25
2022-08-09T09:29:03.438Z,590.62
2022-08-09T09:30:13.333Z,585.00
2022-08-09T09:30:53.259Z,579.38
2022-08-09T09:32:01.869Z,573.75
2022-08-09T09:32:53.214Z,568.12
2022-08-09T09:33:56.990Z,562.50
2022-08-09T09:34:53.194Z,551.25
2022-08-09T09:35:53.098Z,545.62
2022-08-09T09:36:54.703Z,534.38
2022-08-09T09:37:52.166Z,528.75
2022-08-09T09:38:52.157Z,523.12
2022-08-09T09:39:57.183Z,517.50
2022-08-09T09:40:53.156Z,506.25
2022-08-09T09:41:52.128Z,500.62
2022-08-09T09:42:52.119Z,495.00
2022-08-09T09:44:11.144Z,489.38
2022-08-09T09:44:53.099Z,478.12
2022-08-09T09:46:39.489Z,478.12
2022-08-09T09:46:53.080Z,472.50
2022-08-09T09:47:58.354Z,461.25
2022-08-09T09:48:53.061Z,461.25
2022-08-09T09:50:14.520Z,461.25
2022-08-09T09:50:53.071Z,455.62
2022-08-09T09:51:52.031Z,455.62
2022-08-09T09:52:53.984Z,450.00
2022-08-09T09:54:00.970Z,450.00
2022-08-09T09:54:55.667Z,444.38
2022-08-09T09:56:03.961Z,444.38
2022-08-09T09:58:00.560Z,438.75
2022-08-09T09:58:01.239Z,438.75
2022-08-09T09:58:53.493Z,438.75
2022-08-09T09:59:52.265Z,438.75
2022-08-09T10:00:54.344Z,438.75
2022-08-09T10:01:51.938Z,438.75
2022-08-09T10:02:51.927Z,444.38
2022-08-09T10:03:58.103Z,438.75
2022-08-09T10:04:52.909Z,444.38
2022-08-09T10:06:00.843Z,444.38
2022-08-09T10:06:54.555Z,450.00
2022-08-09T10:08:01.017Z,455.62
2022-08-09T10:08:54.950Z,455.62
2022-08-09T10:09:54.967Z,461.25
2022-08-09T10:10:51.875Z,466.88
2022-08-09T10:11:56.990Z,472.50
2022-08-09T10:12:53.275Z,478.12
2022-08-09T10:13:51.812Z,483.75
2022-08-09T10:14:51.955Z,483.75
2022-08-09T10:16:55.780Z,489.38
2022-08-09T10:16:56.755Z,495.00
2022-08-09T10:17:56.638Z,500.62
2022-08-09T10:18:54.403Z,506.25
2022-08-09T10:19:52.038Z,511.88
2022-08-09T10:20:52.775Z,511.88
2022-08-09T10:21:51.739Z,523.12
2022-08-09T10:22:51.737Z,534.38
2022-08-09T10:23:52.719Z,528.75
2022-08-09T10:24:51.708Z,534.38
2022-08-09T10:26:06.954Z,545.62
2022-08-09T10:26:52.689Z,545.62
2022-08-09T10:27:56.982Z,551.25
2022-08-09T10:29:31.685Z,556.88
2022-08-09T10:30:43.666Z,562.50
2022-08-09T10:32:52.870Z,573.75
2022-08-09T10:34:09.063Z,573.75
2022-08-09T10:34:52.613Z,585.00
2022-08-09T10:35:51.623Z,590.62
2022-08-09T10:36:51.593Z,596.25
2022-08-09T10:37:51.683Z,596.25
2022-08-09T10:38:57.063Z,601.88
2022-08-09T10:39:52.626Z,601.88
2022-08-09T10:40:51.630Z,601.88
2022-08-09T10:41:51.551Z,601.88
2022-08-09T10:42:53.007Z,607.50
2022-08-09T10:43:59.907Z,607.50
2022-08-09T10:44:52.518Z,613.12
2022-08-09T10:46:00.003Z,618.75
2022-08-09T10:46:57.604Z,618.75
2022-08-09T10:48:25.834Z,618.75
2022-08-09T10:48:52.509Z,624.38
2022-08-09T10:49:54.236Z,618.75
2022-08-09T10:50:51.489Z,613.12
2022-08-09T10:51:52.861Z,618.75
2022-08-09T10:52:51.479Z,613.12
2022-08-09T10:53:54.471Z,618.75
2022-08-09T10:54:53.311Z,618.75
2022-08-09T10:55:57.850Z,618.75
2022-08-09T10:56:52.414Z,624.38
2022-08-09T10:57:52.023Z,618.75
2022-08-09T10:58:51.393Z,618.75
2022-08-09T10:59:58.114Z,618.75
2022-08-09T11:03:06.450Z,613.12
2022-08-09T11:03:13.974Z,613.12
2022-08-09T11:03:14.939Z,613.12
2022-08-09T11:03:53.812Z,613.12
2022-08-09T11:04:55.598Z,596.25
2022-08-09T11:06:00.339Z,585.00
2022-08-09T11:06:52.339Z,579.38
2022-08-09T11:07:55.017Z,590.62
2022-08-09T11:08:54.018Z,596.25
2022-08-09T11:09:51.287Z,601.88
2022-08-09T11:10:55.967Z,596.25
2022-08-09T11:11:52.290Z,590.62
2022-08-09T11:12:51.260Z,590.62
2022-08-09T11:13:54.662Z,579.38
2022-08-09T11:14:51.264Z,573.75
2022-08-09T11:16:04.754Z,573.75
2022-08-09T11:16:52.242Z,573.75
2022-08-09T11:17:56.762Z,579.38
2022-08-09T11:18:52.203Z,573.75
2022-08-09T11:20:10.717Z,568.12
2022-08-09T11:20:52.183Z,225.00
2022-08-09T11:21:57.551Z,714.38
2022-08-09T11:22:55.548Z,714.38
2022-08-09T11:23:51.164Z,703.12
2022-08-09T11:24:51.148Z,697.50
2022-08-09T11:25:51.177Z,697.50
2022-08-09T11:26:54.601Z,691.88
2022-08-09T11:28:05.275Z,691.88
2022-08-09T11:28:55.909Z,686.25
2022-08-09T11:30:04.512Z,691.88
2022-08-09T11:30:52.109Z,691.88
2022-08-09T11:31:52.722Z,691.88
2022-08-09T11:32:51.071Z,691.88
2022-08-09T11:33:51.199Z,686.25
2022-08-09T11:34:51.587Z,686.25
2022-08-09T11:35:52.056Z,686.25
2022-08-09T11:36:51.032Z,680.62
2022-08-09T11:37:51.033Z,675.00
2022-08-09T11:38:51.013Z,675.00
2022-08-09T11:39:51.043Z,675.00
2022-08-09T11:40:53.066Z,663.75
2022-08-09T11:41:53.588Z,658.12
2022-08-09T11:42:51.250Z,635.62
2022-08-09T11:43:51.627Z,495.00
2022-08-09T11:44:50.967Z,129.38
2022-08-09T11:45:50.995Z,630.00
2022-08-09T11:46:50.953Z,630.00
2022-08-09T11:47:50.946Z,607.50
2022-08-09T11:48:50.932Z,596.25
2022-08-09T11:50:54.408Z,590.62
2022-08-09T11:50:56.797Z,590.62
2022-08-09T11:53:02.871Z,590.62
2022-08-09T11:53:03.991Z,590.62
2022-08-09T11:54:01.344Z,579.38
2022-08-09T11:54:51.870Z,573.75
2022-08-09T11:55:52.687Z,596.25
2022-08-09T11:56:50.881Z,579.38
2022-08-09T11:58:02.178Z,590.62
2022-08-09T11:58:51.842Z,601.88
2022-08-09T11:59:52.404Z,601.88
2022-08-09T12:00:52.886Z,596.25
2022-08-09T12:02:18.187Z,590.62
2022-08-09T12:02:52.620Z,590.62
2022-08-09T12:03:56.607Z,590.62
2022-08-09T12:04:57.986Z,579.38
2022-08-09T12:05:51.802Z,590.62
2022-08-09T12:06:55.845Z,590.62
2022-08-09T12:07:54.562Z,585.00
2022-08-09T12:08:50.758Z,585.00
2022-08-09T12:09:51.354Z,579.38
2022-08-09T12:10:53.836Z,573.75
2022-08-09T12:12:03.275Z,568.12
2022-08-09T12:12:52.883Z,562.50
2022-08-09T12:14:09.122Z,562.50
2022-08-09T12:15:07.450Z,556.88
2022-08-09T12:15:52.348Z,556.88
2022-08-09T12:16:50.701Z,556.88
2022-08-09T12:17:53.343Z,556.88
2022-08-09T12:18:54.148Z,545.62
2022-08-09T12:19:50.904Z,528.75
2022-08-09T12:20:51.652Z,517.50
2022-08-09T12:21:51.393Z,500.62
2022-08-09T12:22:50.634Z,483.75
2022-08-09T12:24:06.365Z,472.50
2022-08-09T12:24:51.618Z,461.25
2022-08-09T12:25:50.605Z,444.38
2022-08-09T12:28:58.496Z,427.50
2022-08-09T12:29:09.805Z,416.25
2022-08-09T12:29:14.624Z,365.62
2022-08-09T12:30:00.104Z,78.75
2022-08-09T12:30:51.561Z,129.38
2022-08-09T12:31:58.512Z,67.50
2022-08-09T12:32:51.538Z,78.75
2022-08-09T12:33:59.005Z,247.50
2022-08-09T12:34:51.520Z,292.50
2022-08-09T12:35:50.646Z,264.38
2022-08-09T12:36:50.528Z,236.25
2022-08-09T12:37:52.192Z,219.38
2022-08-09T12:38:50.490Z,213.75
2022-08-09T12:39:50.557Z,202.50
2022-08-09T12:40:51.923Z,191.25
2022-08-09T12:41:50.492Z,180.00
2022-08-09T12:42:50.989Z,174.38
2022-08-09T12:44:06.041Z,168.75
2022-08-09T12:44:54.592Z,163.12
2022-08-09T12:45:59.398Z,163.12
2022-08-09T12:46:51.445Z,157.50
2022-08-09T12:47:50.594Z,157.50
2022-08-09T12:48:50.401Z,151.88
2022-08-09T12:49:52.790Z,157.50
2022-08-09T12:50:50.376Z,151.88
2022-08-09T12:52:01.255Z,146.25
2022-08-09T12:53:08.231Z,140.62
2022-08-09T12:53:52.819Z,135.00
2022-08-09T12:55:03.023Z,90.00
2022-08-09T12:56:15.703Z,50.62